sensor_id;sensor_type;location;lat;lon;timestamp;pressure;altitude;pressure_sealevel;temperature;humidity
30614;BME280;17381;51.690;5.270;2022-09-24T00:02:28;101296.88;;;14.46;76.34
30614;BME280;17381;51.690;5.270;2022-09-24T00:05:18;101258.97;;;14.21;76.12
30614;BME280;17381;51.690;5.270;2022-09-24T00:08:12;101303.84;;;14.49;76.10
30614;BME280;17381;51.690;5.270;2022-09-24T00:11:05;101294.94;;;14.51;75.94
30614;BME280;17381;51.690;5.270;2022-09-24T00:13:32;101277.66;;;14.41;76.04
30614;BME280;17381;51.690;5.270;2022-09-24T00:16:09;101295.06;;;14.48;76.06
30614;BME280;17381;51.690;5.270;2022-09-24T00:19:00;101294.09;;;14.51;75.90
30614;BME280;17381;51.690;5.270;2022-09-24T00:21:34;101291.47;;;14.49;76.33
30614;BME280;17381;51.690;5.270;2022-09-24T00:24:16;101288.88;;;14.48;75.98
30614;BME280;17381;51.690;5.270;2022-09-24T00:27:26;101281.00;;;14.46;76.07
30614;BME280;17381;51.690;5.270;2022-09-24T00:29:53;101281.16;;;14.42;76.25
30614;BME280;17381;51.690;5.270;2022-09-24T00:32:50;101275.91;;;14.40;76.22
30614;BME280;17381;51.690;5.270;2022-09-24T00:35:17;101276.81;;;14.40;75.99
30614;BME280;17381;51.690;5.270;2022-09-24T00:37:43;101263.84;;;14.33;75.87
30614;BME280;17381;51.690;5.270;2022-09-24T01:10:13;101246.88;;;14.13;76.63
30614;BME280;17381;51.690;5.270;2022-09-24T01:30:03;101234.34;;;14.18;76.21
30614;BME280;17381;51.690;5.270;2022-09-24T01:32:44;101190.31;;;13.92;76.35
30614;BME280;17381;51.690;5.270;2022-09-24T01:35:30;101224.63;;;14.19;76.45
30614;BME280;17381;51.690;5.270;2022-09-24T01:41:39;101207.59;;;14.03;76.22
30614;BME280;17381;51.690;5.270;2022-09-24T01:47:08;101203.06;;;14.06;76.29
30614;BME280;17381;51.690;5.270;2022-09-24T01:49:45;101214.28;;;14.13;76.49
30614;BME280;17381;51.690;5.270;2022-09-24T01:57:20;101212.50;;;14.13;75.89
30614;BME280;17381;51.690;5.270;2022-09-24T02:03:24;101205.44;;;14.14;76.29
30614;BME280;17381;51.690;5.270;2022-09-24T02:20:52;101197.59;;;14.11;76.38
30614;BME280;17381;51.690;5.270;2022-09-24T02:23:25;101189.78;;;14.08;76.29
30614;BME280;17381;51.690;5.270;2022-09-24T02:25:58;101194.00;;;14.13;76.19
30614;BME280;17381;51.690;5.270;2022-09-24T02:28:51;101147.38;;;13.86;76.13
30614;BME280;17381;51.690;5.270;2022-09-24T02:31:43;101185.94;;;14.16;75.98
30614;BME280;17381;51.690;5.270;2022-09-24T02:34:14;101183.31;;;14.16;76.22
30614;BME280;17381;51.690;5.270;2022-09-24T02:36:57;101103.81;;;13.72;76.08
30614;BME280;17381;51.690;5.270;2022-09-24T02:39:32;101178.03;;;14.16;76.38
30614;BME280;17381;51.690;5.270;2022-09-24T02:42:23;101176.31;;;14.15;76.03
30614;BME280;17381;51.690;5.270;2022-09-24T02:44:51;101177.13;;;14.17;76.35
30614;BME280;17381;51.690;5.270;2022-09-24T02:47:25;101174.53;;;14.16;76.03
30614;BME280;17381;51.690;5.270;2022-09-24T02:49:54;101134.66;;;13.97;76.07
30614;BME280;17381;51.690;5.270;2022-09-24T02:52:32;101175.22;;;14.21;76.05
30614;BME280;17381;51.690;5.270;2022-09-24T02:55:03;101177.91;;;14.19;76.16
30614;BME280;17381;51.690;5.270;2022-09-24T02:57:33;101178.03;;;14.16;75.89
30614;BME280;17381;51.690;5.270;2022-09-24T03:00:03;101181.59;;;14.15;75.97
30614;BME280;17381;51.690;5.270;2022-09-24T03:02:37;101175.44;;;14.15;76.16
30614;BME280;17381;51.690;5.270;2022-09-24T03:08:24;101165.94;;;14.09;75.97
30614;BME280;17381;51.690;5.270;2022-09-24T03:10:53;101158.94;;;14.08;76.18
30614;BME280;17381;51.690;5.270;2022-09-24T03:17:08;101161.69;;;14.05;76.23
30614;BME280;17381;51.690;5.270;2022-09-24T03:19:39;101161.72;;;14.04;76.01
30614;BME280;17381;51.690;5.270;2022-09-24T03:22:33;101160.91;;;14.02;76.32
30614;BME280;17381;51.690;5.270;2022-09-24T03:25:03;101150.34;;;14.02;76.42
30614;BME280;17381;51.690;5.270;2022-09-24T03:27:34;101148.47;;;14.05;76.49
30614;BME280;17381;51.690;5.270;2022-09-24T03:30:06;101140.84;;;13.96;76.48
30614;BME280;17381;51.690;5.270;2022-09-24T03:32:56;101143.75;;;13.88;76.48
30614;BME280;17381;51.690;5.270;2022-09-24T03:35:22;101143.50;;;13.96;76.45
30614;BME280;17381;51.690;5.270;2022-09-24T03:37:53;101149.56;;;14.00;76.39
30614;BME280;17381;51.690;5.270;2022-09-24T03:40:33;101148.97;;;13.91;76.70
30614;BME280;17381;51.690;5.270;2022-09-24T03:43:00;101144.66;;;13.89;76.65
30614;BME280;17381;51.690;5.270;2022-09-24T03:45:36;101136.59;;;13.92;76.57
30614;BME280;17381;51.690;5.270;2022-09-24T03:51:10;101143.59;;;13.93;76.59
30614;BME280;17381;51.690;5.270;2022-09-24T03:53:40;101129.66;;;13.89;76.71
30614;BME280;17381;51.690;5.270;2022-09-24T03:56:32;101134.78;;;13.94;76.64
30614;BME280;17381;51.690;5.270;2022-09-24T03:59:11;101141.91;;;13.92;76.79
30614;BME280;17381;51.690;5.270;2022-09-24T04:01:37;101141.22;;;13.85;76.87
30614;BME280;17381;51.690;5.270;2022-09-24T04:04:06;101130.66;;;13.85;76.61
30614;BME280;17381;51.690;5.270;2022-09-24T04:06:32;101139.44;;;13.86;76.60
30614;BME280;17381;51.690;5.270;2022-09-24T04:09:06;101124.63;;;13.82;77.00
30614;BME280;17381;51.690;5.270;2022-09-24T04:11:39;101128.88;;;13.86;76.87
30614;BME280;17381;51.690;5.270;2022-09-24T04:14:07;101131.53;;;13.86;76.80
30614;BME280;17381;51.690;5.270;2022-09-24T04:16:37;101130.63;;;13.87;77.11
30614;BME280;17381;51.690;5.270;2022-09-24T04:19:16;101096.00;;;13.69;77.03
30614;BME280;17381;51.690;5.270;2022-09-24T04:21:51;101130.63;;;13.87;76.89
30614;BME280;17381;51.690;5.270;2022-09-24T04:24:25;101076.91;;;13.61;77.15
30614;BME280;17381;51.690;5.270;2022-09-24T04:27:03;101129.56;;;13.91;76.79
30614;BME280;17381;51.690;5.270;2022-09-24T04:29:38;101096.81;;;13.71;76.92
30614;BME280;17381;51.690;5.270;2022-09-24T04:32:10;101117.53;;;13.84;76.92
30614;BME280;17381;51.690;5.270;2022-09-24T04:34:39;101115.66;;;13.86;76.87
30614;BME280;17381;51.690;5.270;2022-09-24T04:37:07;101110.50;;;13.83;76.85
30614;BME280;17381;51.690;5.270;2022-09-24T04:40:04;101116.56;;;13.86;77.13
30614;BME280;17381;51.690;5.270;2022-09-24T04:42:44;101075.28;;;13.57;77.07
30614;BME280;17381;51.690;5.270;2022-09-24T04:45:28;101112.25;;;13.84;77.21
30614;BME280;17381;51.690;5.270;2022-09-24T04:48:31;101100.34;;;13.70;77.09
30614;BME280;17381;51.690;5.270;2022-09-24T04:54:47;101122.88;;;13.81;77.50
30614;BME280;17381;51.690;5.270;2022-09-24T05:02:04;101122.19;;;13.75;77.51
30614;BME280;17381;51.690;5.270;2022-09-24T05:04:39;101128.41;;;13.74;77.89
30614;BME280;17381;51.690;5.270;2022-09-24T05:07:09;101122.09;;;13.79;77.48
30614;BME280;17381;51.690;5.270;2022-09-24T05:09:52;101121.31;;;13.75;77.81
30614;BME280;17381;51.690;5.270;2022-09-24T05:12:32;101123.81;;;13.80;77.73
30614;BME280;17381;51.690;5.270;2022-09-24T05:15:25;101116.63;;;13.83;77.88
30614;BME280;17381;51.690;5.270;2022-09-24T05:17:56;101124.63;;;13.82;77.80
30614;BME280;17381;51.690;5.270;2022-09-24T05:20:34;101119.19;;;13.86;77.55
30614;BME280;17381;51.690;5.270;2022-09-24T05:23:30;101125.38;;;13.85;77.59
30614;BME280;17381;51.690;5.270;2022-09-24T05:26:16;101125.38;;;13.85;77.95
30614;BME280;17381;51.690;5.270;2022-09-24T05:29:06;101124.56;;;13.83;77.93
30614;BME280;17381;51.690;5.270;2022-09-24T05:31:38;101132.75;;;13.75;77.75
30614;BME280;17381;51.690;5.270;2022-09-24T05:34:18;101125.72;;;13.76;78.00
30614;BME280;17381;51.690;5.270;2022-09-24T05:37:01;101107.56;;;13.65;77.96
30614;BME280;17381;51.690;5.270;2022-09-24T05:39:47;101130.03;;;13.79;77.90
30614;BME280;17381;51.690;5.270;2022-09-24T05:42:50;101138.84;;;13.78;77.87
30614;BME280;17381;51.690;5.270;2022-09-24T05:45:34;101132.66;;;13.79;77.89
30614;BME280;17381;51.690;5.270;2022-09-24T05:48:19;101129.31;;;13.73;77.77
30614;BME280;17381;51.690;5.270;2022-09-24T05:50:59;101137.97;;;13.79;77.80
30614;BME280;17381;51.690;5.270;2022-09-24T05:53:34;101141.34;;;13.82;78.10
30614;BME280;17381;51.690;5.270;2022-09-24T05:56:03;101137.97;;;13.79;78.14
30614;BME280;17381;51.690;5.270;2022-09-24T05:58:37;101153.59;;;13.85;78.04
30614;BME280;17381;51.690;5.270;2022-09-24T06:01:25;101155.31;;;13.86;78.30
30614;BME280;17381;51.690;5.270;2022-09-24T06:04:02;101106.84;;;13.60;78.09
30614;BME280;17381;51.690;5.270;2022-09-24T06:06:34;101126.75;;;13.70;78.20
30614;BME280;17381;51.690;5.270;2022-09-24T06:09:09;101157.03;;;13.87;78.06
30614;BME280;17381;51.690;5.270;2022-09-24T06:11:45;101147.34;;;13.87;77.97
30614;BME280;17381;51.690;5.270;2022-09-24T06:14:22;101111.19;;;13.63;77.95
30614;BME280;17381;51.690;5.270;2022-09-24T06:16:51;101156.13;;;13.88;78.08
30614;BME280;17381;51.690;5.270;2022-09-24T06:19:23;101161.38;;;13.89;78.28
30614;BME280;17381;51.690;5.270;2022-09-24T06:21:58;101156.13;;;13.88;78.17
30614;BME280;17381;51.690;5.270;2022-09-24T06:24:32;101112.84;;;13.65;78.16
30614;BME280;17381;51.690;5.270;2022-09-24T06:27:24;101153.31;;;13.92;78.28
30614;BME280;17381;51.690;5.270;2022-09-24T06:29:55;101154.25;;;13.91;78.36
30614;BME280;17381;51.690;5.270;2022-09-24T06:32:42;101166.50;;;13.94;78.16
30614;BME280;17381;51.690;5.270;2022-09-24T06:38:23;101140.75;;;13.74;78.51
30614;BME280;17381;51.690;5.270;2022-09-24T06:41:05;101171.78;;;13.94;78.29
30614;BME280;17381;51.690;5.270;2022-09-24T06:43:34;101165.69;;;13.92;78.58
30614;BME280;17381;51.690;5.270;2022-09-24T06:49:30;101175.41;;;13.91;78.56
30614;BME280;17381;51.690;5.270;2022-09-24T06:52:01;101174.56;;;13.89;78.45
30614;BME280;17381;51.690;5.270;2022-09-24T06:54:35;101179.72;;;13.94;78.31
30614;BME280;17381;51.690;5.270;2022-09-24T06:57:08;101166.69;;;13.88;78.54
30614;BME280;17381;51.690;5.270;2022-09-24T06:59:42;101170.25;;;13.87;78.74
30614;BME280;17381;51.690;5.270;2022-09-24T07:02:27;101174.50;;;13.91;78.42
30614;BME280;17381;51.690;5.270;2022-09-24T07:04:59;101175.31;;;13.93;78.75
30614;BME280;17381;51.690;5.270;2022-09-24T07:07:27;101175.41;;;13.91;78.63
30614;BME280;17381;51.690;5.270;2022-09-24T07:10:20;101174.63;;;13.88;78.46
30614;BME280;17381;51.690;5.270;2022-09-24T07:13:00;101185.03;;;13.92;78.48
30614;BME280;17381;51.690;5.270;2022-09-24T07:15:34;101176.34;;;13.89;78.45
30614;BME280;17381;51.690;5.270;2022-09-24T07:18:09;101181.38;;;13.96;78.73
30614;BME280;17381;51.690;5.270;2022-09-24T07:21:10;101182.25;;;13.97;78.65
30614;BME280;17381;51.690;5.270;2022-09-24T07:24:23;101185.78;;;13.96;78.42
30614;BME280;17381;51.690;5.270;2022-09-24T07:27:03;101176.28;;;13.90;78.91
30614;BME280;17381;51.690;5.270;2022-09-24T07:34:05;101191.94;;;13.96;78.72
30614;BME280;17381;51.690;5.270;2022-09-24T07:36:38;101164.63;;;13.71;79.21
30614;BME280;17381;51.690;5.270;2022-09-24T07:39:12;101194.53;;;13.98;78.86
30614;BME280;17381;51.690;5.270;2022-09-24T07:41:50;101191.06;;;13.96;79.05
30614;BME280;17381;51.690;5.270;2022-09-24T07:44:40;101209.31;;;14.04;78.59
30614;BME280;17381;51.690;5.270;2022-09-24T07:47:26;101195.28;;;14.02;78.80
30614;BME280;17381;51.690;5.270;2022-09-24T07:50:24;101200.66;;;13.99;78.60
30614;BME280;17381;51.690;5.270;2022-09-24T07:53:14;101156.50;;;13.77;78.89
30614;BME280;17381;51.690;5.270;2022-09-24T07:58:59;101204.00;;;14.04;79.02
30614;BME280;17381;51.690;5.270;2022-09-24T08:01:39;101211.91;;;14.05;79.00
30614;BME280;17381;51.690;5.270;2022-09-24T08:04:31;101165.97;;;13.83;79.08
30614;BME280;17381;51.690;5.270;2022-09-24T08:07:22;101170.38;;;13.84;79.14
30614;BME280;17381;51.690;5.270;2022-09-24T08:09:54;101209.16;;;14.08;78.91
30614;BME280;17381;51.690;5.270;2022-09-24T08:12:31;101166.78;;;13.85;79.00
30614;BME280;17381;51.690;5.270;2022-09-24T08:15:17;101222.16;;;14.14;78.73
30614;BME280;17381;51.690;5.270;2022-09-24T08:18:01;101217.19;;;14.05;79.09
30614;BME280;17381;51.690;5.270;2022-09-24T08:20:46;101218.78;;;14.09;79.12
30614;BME280;17381;51.690;5.270;2022-09-24T08:23:27;101216.97;;;14.11;79.27
30614;BME280;17381;51.690;5.270;2022-09-24T08:26:20;101227.41;;;14.16;78.89
30614;BME280;17381;51.690;5.270;2022-09-24T08:28:55;101223.06;;;14.13;78.86
30614;BME280;17381;51.690;5.270;2022-09-24T08:31:41;101225.72;;;14.13;79.34
30614;BME280;17381;51.690;5.270;2022-09-24T08:34:12;101231.75;;;14.17;79.27
30614;BME280;17381;51.690;5.270;2022-09-24T08:37:03;101230.72;;;14.23;78.87
30614;BME280;17381;51.690;5.270;2022-09-24T08:39:40;101234.25;;;14.22;79.32
30614;BME280;17381;51.690;5.270;2022-09-24T08:42:49;101236.88;;;14.22;78.84
30614;BME280;17381;51.690;5.270;2022-09-24T08:49:13;101244.94;;;14.18;78.91
30614;BME280;17381;51.690;5.270;2022-09-24T08:55:04;101239.75;;;14.15;78.75
30614;BME280;17381;51.690;5.270;2022-09-24T09:00:38;101242.41;;;14.15;78.94
30614;BME280;17381;51.690;5.270;2022-09-24T09:03:57;101251.94;;;14.19;78.86
30614;BME280;17381;51.690;5.270;2022-09-24T09:06:54;101245.75;;;14.21;78.83
30614;BME280;17381;51.690;5.270;2022-09-24T09:09:41;101241.47;;;14.16;78.88
30614;BME280;17381;51.690;5.270;2022-09-24T09:12:52;101250.09;;;14.22;79.12
30614;BME280;17381;51.690;5.270;2022-09-24T09:15:38;101257.22;;;14.19;78.91
30614;BME280;17381;51.690;5.270;2022-09-24T09:18:22;101237.47;;;14.05;78.91
30614;BME280;17381;51.690;5.270;2022-09-24T09:21:14;101221.88;;;13.97;78.97
30614;BME280;17381;51.690;5.270;2022-09-24T09:24:08;101264.25;;;14.21;79.21
30614;BME280;17381;51.690;5.270;2022-09-24T09:26:58;101258.19;;;14.17;79.26
30614;BME280;17381;51.690;5.270;2022-09-24T09:39:37;101261.50;;;14.24;79.40
30614;BME280;17381;51.690;5.270;2022-09-24T09:42:28;101260.56;;;14.25;79.27
30614;BME280;17381;51.690;5.270;2022-09-24T09:48:14;101271.84;;;14.30;79.63
30614;BME280;17381;51.690;5.270;2022-09-24T09:50:58;101278.75;;;14.35;79.33
30614;BME280;17381;51.690;5.270;2022-09-24T10:01:21;101270.84;;;14.34;79.48
30614;BME280;17381;51.690;5.270;2022-09-24T10:04:31;101279.38;;;14.42;79.45
30614;BME280;17381;51.690;5.270;2022-09-24T10:07:24;101289.09;;;14.42;79.34
30614;BME280;17381;51.690;5.270;2022-09-24T10:10:19;101281.00;;;14.46;79.46
30614;BME280;17381;51.690;5.270;2022-09-24T10:13:08;101270.53;;;14.43;79.58
30614;BME280;17381;51.690;5.270;2022-09-24T10:15:54;101281.00;;;14.46;79.40
30614;BME280;17381;51.690;5.270;2022-09-24T10:18:36;101275.59;;;14.49;79.54
30614;BME280;17381;51.690;5.270;2022-09-24T10:21:34;101254.75;;;14.40;79.30
30614;BME280;17381;51.690;5.270;2022-09-24T10:24:34;101281.56;;;14.56;79.44
30614;BME280;17381;51.690;5.270;2022-09-24T10:27:11;101281.63;;;14.54;79.53
30614;BME280;17381;51.690;5.270;2022-09-24T10:29:53;101278.88;;;14.57;79.37
30614;BME280;17381;51.690;5.270;2022-09-24T10:32:56;101259.69;;;14.51;79.49
30614;BME280;17381;51.690;5.270;2022-09-24T10:35:36;101264.72;;;14.58;79.86
30614;BME280;17381;51.690;5.270;2022-09-24T10:38:47;101266.22;;;14.66;79.57
30614;BME280;17381;51.690;5.270;2022-09-24T10:41:44;101270.53;;;14.68;79.91
30614;BME280;17381;51.690;5.270;2022-09-24T10:44:27;101229.25;;;14.39;79.41
30614;BME280;17381;51.690;5.270;2022-09-24T10:48:12;101286.50;;;14.67;79.67
30614;BME280;17381;51.690;5.270;2022-09-24T10:51:37;101277.66;;;14.66;79.61
30614;BME280;17381;51.690;5.270;2022-09-24T10:57:07;101282.22;;;14.63;79.57
30614;BME280;17381;51.690;5.270;2022-09-24T11:06:29;101292.81;;;14.63;79.61
30614;BME280;17381;51.690;5.270;2022-09-24T11:22:06;101296.56;;;14.55;79.75
30614;BME280;17381;51.690;5.270;2022-09-24T11:28:13;101299.19;;;14.57;79.55
30614;BME280;17381;51.690;5.270;2022-09-24T11:40:23;101306.63;;;14.71;79.80
30614;BME280;17381;51.690;5.270;2022-09-24T12:20:29;101300.78;;;14.61;79.91
30614;BME280;17381;51.690;5.270;2022-09-24T12:26:37;101305.03;;;14.67;80.04
30614;BME280;17381;51.690;5.270;2022-09-24T20:44:08;101557.19;;;13.09;78.08
30614;BME280;17381;51.690;5.270;2022-09-24T21:12:57;101565.88;;;13.13;77.14
30614;BME280;17381;51.690;5.270;2022-09-24T23:59:56;101572.66;;;12.50;75.75
